Time;durP1;ratioP1;P1;durP2;ratioP2;P2;SDS_P1;SDS_P2;PMS_P1;PMS_P2;Temp;Humidity;BMP_temperature;BMP_pressure;BME280_temperature;BME280_humidity;BME280_pressure;Samples;Min_cycle;Max_cycle;Signal;HPM_P1;HPM_P2
2022/02/20 00:01:27;;;;;;;21.38;11.30;;;5.00;99.90;;;;;;4931939;28;20057;-86
2022/02/20 00:03:53;;;;;;;22.13;11.10;;;5.10;99.90;;;;;;4908089;28;20035;-85
2022/02/20 00:06:19;;;;;;;24.35;11.88;;;5.00;99.90;;;;;;4905564;28;20035;-88
2022/02/20 00:08:45;;;;;;;18.80;11.35;;;5.10;99.90;;;;;;4913982;28;20332;-86
2022/02/20 00:11:10;;;;;;;22.33;11.45;;;5.10;99.90;;;;;;4909977;28;20494;-86
2022/02/20 00:13:36;;;;;;;26.85;12.07;;;5.10;99.90;;;;;;4895611;28;20097;-87
2022/02/20 00:16:02;;;;;;;23.25;11.57;;;5.10;99.90;;;;;;4957492;28;21230;-86
2022/02/20 00:18:28;;;;;;;21.90;11.00;;;5.20;99.90;;;;;;4910792;28;20031;-86
2022/02/20 00:20:54;;;;;;;29.15;11.57;;;5.10;99.90;;;;;;4917578;28;20129;-87
2022/02/20 00:23:19;;;;;;;21.20;10.95;;;5.20;99.90;;;;;;4912259;28;20332;-85
2022/02/20 00:25:46;;;;;;;25.40;11.45;;;5.20;99.90;;;;;;4925371;28;20522;-86
2022/02/20 00:28:12;;;;;;;31.30;11.90;;;5.20;99.90;;;;;;4918722;28;20084;-86
2022/02/20 00:30:38;;;;;;;21.10;12.02;;;5.20;99.90;;;;;;4905107;28;20049;-86
2022/02/20 00:33:04;;;;;;;21.33;11.13;;;5.20;99.90;;;;;;4917079;28;20454;-85
2022/02/20 00:35:33;;;;;;;19.52;10.75;;;5.20;99.90;;;;;;4936305;28;20105;-85
2022/02/20 00:38:00;;;;;;;18.27;11.77;;;5.20;99.90;;;;;;4934846;28;20053;-86
2022/02/20 00:40:27;;;;;;;16.23;10.73;;;5.10;99.90;;;;;;4944260;28;20038;-86
2022/02/20 00:42:59;;;;;;;21.60;11.13;;;5.10;99.90;;;;;;4915752;28;20043;-86
2022/02/20 00:45:25;;;;;;;;;;;5.10;99.90;;;;;;4919458;28;20146;-86
2022/02/20 00:47:51;;;;;;;16.23;9.98;;;5.00;99.90;;;;;;4933165;28;19926;-85
2022/02/20 00:50:17;;;;;;;20.13;9.98;;;5.00;99.90;;;;;;4902537;28;20043;-86
2022/02/20 00:52:43;;;;;;;16.50;9.90;;;4.90;99.90;;;;;;4924572;28;20193;-86
2022/02/20 00:55:09;;;;;;;17.92;10.93;;;4.80;99.90;;;;;;4922774;28;20039;-86
2022/02/20 00:57:35;;;;;;;12.68;9.30;;;4.70;99.90;;;;;;4903527;28;20039;-87
2022/02/20 01:00:03;;;;;;;13.65;9.75;;;4.60;99.90;;;;;;4906707;28;20039;-87
2022/02/20 01:02:29;;;;;;;23.80;9.43;;;4.60;99.90;;;;;;4904929;28;20058;-89
2022/02/20 01:04:55;;;;;;;14.20;8.10;;;4.60;99.90;;;;;;4884873;28;20038;-86
2022/02/20 01:07:22;;;;;;;12.18;8.25;;;4.50;99.90;;;;;;4905328;28;20114;-87
2022/02/20 01:09:48;;;;;;;10.20;7.68;;;4.40;99.90;;;;;;4917160;28;20046;-86
2022/02/20 01:12:16;;;;;;;11.40;7.32;;;4.40;99.90;;;;;;4906080;28;20051;-86
2022/02/20 01:14:43;;;;;;;11.88;7.88;;;4.30;99.90;;;;;;4927722;28;20042;-86
2022/02/20 01:17:10;;;;;;;11.93;8.18;;;4.20;99.90;;;;;;4888634;28;20173;-87
2022/02/20 01:19:36;;;;;;;12.80;8.10;;;4.10;99.90;;;;;;4922542;28;20039;-87
2022/02/20 01:22:02;;;;;;;13.98;8.88;;;4.10;99.90;;;;;;4921693;28;20058;-86
2022/02/20 01:24:28;;;;;;;12.05;8.75;;;4.00;99.90;;;;;;4911198;28;20034;-87
2022/02/20 01:26:54;;;;;;;12.10;8.18;;;4.00;99.90;;;;;;4892045;28;20081;-88
2022/02/20 01:29:21;;;;;;;13.45;8.63;;;4.00;99.90;;;;;;4905908;28;20165;-87
2022/02/20 01:31:47;;;;;;;11.95;7.90;;;3.90;99.90;;;;;;4899254;28;20310;-87
2022/02/20 01:34:13;;;;;;;11.25;8.38;;;3.90;99.90;;;;;;4925673;28;20046;-86
2022/02/20 01:36:39;;;;;;;10.90;7.32;;;3.90;99.90;;;;;;4916842;28;20073;-86
2022/02/20 01:39:04;;;;;;;9.75;7.10;;;3.90;99.90;;;;;;4907553;28;20039;-86
2022/02/20 01:41:30;;;;;;;10.38;7.07;;;3.90;99.90;;;;;;4925454;28;20070;-86
2022/02/20 01:43:56;;;;;;;9.50;6.38;;;3.90;99.90;;;;;;4902649;28;20501;-85
2022/02/20 01:46:22;;;;;;;11.95;6.80;;;3.80;99.90;;;;;;4929812;28;20041;-85
2022/02/20 01:48:48;;;;;;;10.30;6.50;;;3.70;99.90;;;;;;4944669;28;20053;-86
2022/02/20 01:51:14;;;;;;;8.77;5.93;;;3.70;99.90;;;;;;4922998;28;20129;-87
2022/02/20 01:53:40;;;;;;;9.18;5.95;;;3.70;99.90;;;;;;4919111;28;20043;-85
2022/02/20 01:56:06;;;;;;;8.63;5.82;;;3.60;99.90;;;;;;4889661;28;20050;-87
2022/02/20 01:58:32;;;;;;;8.82;5.63;;;3.60;99.90;;;;;;4916022;28;20482;-87
2022/02/20 02:01:01;;;;;;;7.53;5.47;;;3.60;99.90;;;;;;4947481;28;20133;-85
2022/02/20 02:03:27;;;;;;;7.28;5.13;;;3.50;99.90;;;;;;4917434;28;20101;-85
2022/02/20 02:05:52;;;;;;;9.73;5.25;;;3.50;99.90;;;;;;4923462;28;20035;-86
2022/02/20 02:08:19;;;;;;;9.98;5.75;;;3.50;99.90;;;;;;4919136;28;20157;-86
2022/02/20 02:10:46;;;;;;;8.20;5.45;;;3.40;99.90;;;;;;4917972;28;20562;-87
2022/02/20 02:13:12;;;;;;;8.57;5.47;;;3.40;99.90;;;;;;4909537;28;20413;-86
2022/02/20 02:15:52;;;;;;;8.88;5.95;;;3.40;99.90;;;;;;4915630;28;20049;-86
2022/02/20 02:18:18;;;;;;;9.70;5.60;;;3.40;99.90;;;;;;4927088;28;20039;-86
2022/02/20 02:20:44;;;;;;;10.13;5.68;;;3.40;99.90;;;;;;4923825;28;20419;-85
2022/02/20 02:23:11;;;;;;;10.98;5.75;;;3.30;99.90;;;;;;4898522;28;20809;-86
2022/02/20 02:25:38;;;;;;;10.13;5.32;;;3.30;99.90;;;;;;4916654;28;20034;-86
2022/02/20 02:28:04;;;;;;;7.53;4.97;;;3.30;99.90;;;;;;4911160;28;20053;-87
2022/02/20 02:30:30;;;;;;;6.07;4.40;;;3.40;99.90;;;;;;4916940;28;20511;-86
2022/02/20 02:32:56;;;;;;;6.13;4.05;;;3.30;99.90;;;;;;4913779;28;20123;-86
2022/02/20 02:35:22;;;;;;;7.60;4.97;;;3.40;99.90;;;;;;4908344;28;20050;-85
2022/02/20 02:37:48;;;;;;;10.20;6.13;;;3.30;99.90;;;;;;4922680;28;20486;-86
2022/02/20 02:40:14;;;;;;;8.10;5.60;;;3.30;99.90;;;;;;4911073;28;20081;-86
2022/02/20 02:42:39;;;;;;;10.50;5.80;;;3.40;99.90;;;;;;4932647;28;20061;-86
2022/02/20 02:45:06;;;;;;;7.60;5.45;;;3.30;99.90;;;;;;4901940;28;20121;-86
2022/02/20 02:47:32;;;;;;;10.30;5.78;;;3.40;99.90;;;;;;4929048;28;20042;-86
2022/02/20 02:49:58;;;;;;;8.00;5.90;;;3.40;99.90;;;;;;4902133;28;20054;-86
2022/02/20 02:52:24;;;;;;;8.95;5.65;;;3.30;99.90;;;;;;4909346;28;20059;-86
2022/02/20 02:54:50;;;;;;;10.75;6.13;;;3.40;99.90;;;;;;4908991;28;20053;-86
2022/02/20 02:57:15;;;;;;;8.73;5.95;;;3.40;99.90;;;;;;4926146;28;20073;-86
2022/02/20 02:59:41;;;;;;;9.95;6.63;;;3.30;99.90;;;;;;4910925;28;20038;-87
2022/02/20 03:02:08;;;;;;;11.25;6.07;;;3.30;99.90;;;;;;4914677;28;20043;-87
2022/02/20 03:04:34;;;;;;;9.15;5.53;;;3.30;99.90;;;;;;4917692;28;20143;-86
2022/02/20 03:07:00;;;;;;;8.80;6.25;;;3.40;99.90;;;;;;4907663;28;20035;-87
2022/02/20 03:09:27;;;;;;;9.30;5.78;;;3.30;99.90;;;;;;4935660;28;20145;-87
2022/02/20 03:11:53;;;;;;;9.40;5.93;;;3.30;99.90;;;;;;4909360;28;20070;-86
2022/02/20 03:14:20;;;;;;;9.60;5.88;;;3.30;99.90;;;;;;4903601;28;20923;-86
2022/02/20 03:16:46;;;;;;;9.93;6.18;;;3.20;99.90;;;;;;4906045;28;20046;-87
2022/02/20 03:19:11;;;;;;;7.90;5.65;;;3.20;99.90;;;;;;4928331;28;20046;-86
2022/02/20 03:21:37;;;;;;;10.40;5.75;;;3.20;99.90;;;;;;4908270;28;20047;-86
2022/02/20 03:24:04;;;;;;;7.97;5.40;;;3.10;99.90;;;;;;4938082;28;20042;-87
2022/02/20 03:26:30;;;;;;;8.45;5.32;;;3.10;99.90;;;;;;4903988;28;20122;-85
2022/02/20 03:28:56;;;;;;;7.95;5.65;;;3.10;99.90;;;;;;4905678;28;20046;-87
2022/02/20 03:31:21;;;;;;;9.48;5.15;;;3.10;99.90;;;;;;4929095;28;20085;-87
2022/02/20 03:33:47;;;;;;;10.07;5.32;;;3.10;99.90;;;;;;4920736;28;20518;-87
2022/02/20 03:36:14;;;;;;;7.40;5.25;;;3.10;99.90;;;;;;4906140;28;20125;-87
2022/02/20 03:38:41;;;;;;;8.93;5.72;;;3.10;99.90;;;;;;4941656;28;20045;-87
2022/02/20 03:41:07;;;;;;;8.25;5.68;;;3.10;99.90;;;;;;4933888;28;21027;-86
2022/02/20 03:43:34;;;;;;;9.00;6.35;;;3.10;99.90;;;;;;4925895;28;20042;-87
2022/02/20 03:46:00;;;;;;;7.80;6.05;;;3.10;99.90;;;;;;4929553;28;20679;-87
2022/02/20 03:48:26;;;;;;;9.57;5.88;;;3.10;99.90;;;;;;4903681;28;20050;-87
2022/02/20 03:50:52;;;;;;;8.10;5.32;;;3.10;99.90;;;;;;4910264;28;20430;-86
2022/02/20 03:53:17;;;;;;;8.48;5.53;;;3.00;99.90;;;;;;4918648;28;20419;-86
2022/02/20 03:55:43;;;;;;;6.18;5.20;;;2.90;99.90;;;;;;4904792;28;20042;-87
2022/02/20 03:58:09;;;;;;;9.18;5.53;;;3.00;99.90;;;;;;4919506;28;20177;-86
2022/02/20 04:00:36;;;;;;;7.80;5.57;;;2.90;99.90;;;;;;4907432;28;20494;-86
2022/02/20 04:03:02;;;;;;;8.65;5.70;;;2.90;99.90;;;;;;4920918;28;20076;-86
2022/02/20 04:05:27;;;;;;;7.90;5.35;;;2.90;99.90;;;;;;4909095;28;20731;-86
2022/02/20 04:07:53;;;;;;;7.38;4.43;;;2.90;99.90;;;;;;4907308;28;20153;-86
2022/02/20 04:10:19;;;;;;;8.00;5.10;;;2.90;99.90;;;;;;4908052;28;20054;-86
2022/02/20 04:12:45;;;;;;;8.85;5.05;;;2.90;99.90;;;;;;4885672;28;20049;-86
2022/02/20 04:15:11;;;;;;;6.80;4.55;;;2.90;99.90;;;;;;4906579;28;20583;-86
2022/02/20 04:17:42;;;;;;;10.23;4.45;;;2.90;99.90;;;;;;4928396;28;20410;-86
2022/02/20 04:20:10;;;;;;;7.13;4.65;;;3.00;99.90;;;;;;4928005;28;20516;-87
2022/02/20 04:22:36;;;;;;;7.63;4.22;;;2.90;99.90;;;;;;4927452;28;20046;-87
2022/02/20 04:25:02;;;;;;;7.47;4.82;;;3.00;99.90;;;;;;4914320;28;20093;-86
2022/02/20 04:27:28;;;;;;;9.30;4.93;;;3.00;99.90;;;;;;4913182;28;20043;-87
2022/02/20 04:29:54;;;;;;;7.93;5.28;;;3.00;99.90;;;;;;4899593;28;20495;-85
2022/02/20 04:32:20;;;;;;;7.78;5.22;;;3.00;99.90;;;;;;4908319;28;20072;-85
2022/02/20 04:34:46;;;;;;;10.48;5.07;;;3.10;99.90;;;;;;4924942;28;20039;-85
2022/02/20 04:37:11;;;;;;;7.70;5.13;;;3.10;99.90;;;;;;4896617;28;20122;-85
2022/02/20 04:39:37;;;;;;;10.13;5.47;;;3.10;99.90;;;;;;4912920;28;20124;-86
2022/02/20 04:42:03;;;;;;;10.38;5.03;;;3.10;99.90;;;;;;4886711;28;20042;-86
2022/02/20 04:44:29;;;;;;;8.80;5.40;;;3.20;99.90;;;;;;4908135;28;20280;-86
2022/02/20 04:46:55;;;;;;;10.93;5.45;;;3.30;99.90;;;;;;4905139;28;20101;-86
2022/02/20 04:49:20;;;;;;;9.88;5.80;;;3.20;99.90;;;;;;4910804;28;20726;-87
2022/02/20 04:51:46;;;;;;;9.60;5.30;;;3.20;99.90;;;;;;4938477;28;20097;-85
2022/02/20 04:54:12;;;;;;;8.70;5.03;;;3.20;99.90;;;;;;4929424;28;20050;-88
2022/02/20 04:56:38;;;;;;;8.15;5.63;;;3.30;99.90;;;;;;4917491;28;20053;-85
2022/02/20 04:59:03;;;;;;;11.80;4.97;;;3.30;99.90;;;;;;4936504;28;20039;-88
2022/02/20 05:01:29;;;;;;;11.02;5.45;;;3.30;99.90;;;;;;4916374;28;20081;-87
2022/02/20 05:03:55;;;;;;;8.43;5.15;;;3.30;99.90;;;;;;4909883;28;20034;-86
2022/02/20 05:06:27;;;;;;;8.32;5.28;;;3.40;99.90;;;;;;4922494;28;20081;-84
2022/02/20 05:08:54;;;;;;;8.90;5.13;;;3.40;99.90;;;;;;4940034;28;20042;-87
2022/02/20 05:11:20;;;;;;;7.55;4.57;;;3.40;99.90;;;;;;4911156;28;20397;-86
2022/02/20 05:13:45;;;;;;;9.48;4.45;;;3.40;99.90;;;;;;4924763;28;20038;-86
2022/02/20 05:16:11;;;;;;;7.18;4.63;;;3.40;99.90;;;;;;4902663;28;20050;-86
2022/02/20 05:18:37;;;;;;;10.07;4.38;;;3.50;99.90;;;;;;4919208;28;20061;-86
2022/02/20 05:21:03;;;;;;;8.10;4.60;;;3.50;99.90;;;;;;4924047;28;20042;-87
2022/02/20 05:23:28;;;;;;;9.02;4.78;;;3.50;99.90;;;;;;4922179;28;20093;-86
2022/02/20 05:25:54;;;;;;;7.85;4.20;;;3.50;99.90;;;;;;4924947;28;20089;-85
2022/02/20 05:28:20;;;;;;;7.75;4.75;;;3.50;99.90;;;;;;4901200;28;20153;-86
2022/02/20 05:30:46;;;;;;;8.27;5.05;;;3.60;99.90;;;;;;4927177;28;20370;-87
2022/02/20 05:33:11;;;;;;;7.97;4.68;;;3.60;99.90;;;;;;4930021;28;20674;-88
2022/02/20 05:35:37;;;;;;;11.30;4.60;;;3.60;99.90;;;;;;4925749;28;20038;-87
2022/02/20 05:38:03;;;;;;;11.82;5.88;;;3.60;99.90;;;;;;4912095;28;20043;-87
2022/02/20 05:40:29;;;;;;;12.95;5.80;;;3.60;99.90;;;;;;4927316;28;20481;-87
2022/02/20 05:42:57;;;;;;;9.70;5.10;;;3.60;99.90;;;;;;4925413;28;20441;-88
2022/02/20 05:45:26;;;;;;;11.63;6.13;;;3.60;99.90;;;;;;4938390;28;20039;-88
2022/02/20 05:47:52;;;;;;;9.55;5.25;;;3.60;99.90;;;;;;4939449;28;20042;-86
2022/02/20 05:50:18;;;;;;;8.50;5.38;;;3.60;99.90;;;;;;4910755;28;20043;-87
2022/02/20 05:52:44;;;;;;;11.05;5.13;;;3.60;99.90;;;;;;4917072;28;20237;-89
2022/02/20 05:55:10;;;;;;;9.77;5.80;;;3.60;99.90;;;;;;4923321;28;20039;-86
2022/02/20 05:57:42;;;;;;;12.32;4.68;;;3.60;99.90;;;;;;4924625;28;20050;-88
2022/02/20 06:00:09;;;;;;;;;;;3.60;99.90;;;;;;4928209;28;20080;-86
2022/02/20 06:02:35;;;;;;;13.32;4.88;;;3.60;99.90;;;;;;4940489;28;19949;-88
2022/02/20 06:05:01;;;;;;;11.98;4.38;;;3.60;99.90;;;;;;4924789;28;20038;-88
2022/02/20 06:07:27;;;;;;;9.00;4.47;;;3.70;99.90;;;;;;4954299;28;20050;-88
2022/02/20 06:09:53;;;;;;;14.73;4.93;;;3.60;99.90;;;;;;4931301;28;20118;-87
2022/02/20 06:12:19;;;;;;;10.95;4.28;;;3.70;99.90;;;;;;4933200;28;20130;-87
2022/02/20 06:14:45;;;;;;;8.73;4.75;;;3.70;99.90;;;;;;4936526;28;20046;-86
2022/02/20 06:17:10;;;;;;;12.55;4.10;;;3.60;99.90;;;;;;4911507;28;20047;-87
2022/02/20 06:19:36;;;;;;;9.15;4.47;;;3.70;99.90;;;;;;4934986;28;20042;-86
2022/02/20 06:22:03;;;;;;;8.23;4.43;;;3.70;99.90;;;;;;4947346;28;20066;-85
2022/02/20 06:24:28;;;;;;;8.77;4.72;;;3.70;99.90;;;;;;4959405;28;20065;-86
2022/02/20 06:26:54;;;;;;;13.70;5.22;;;3.70;99.90;;;;;;4935961;28;20046;-86
2022/02/20 06:29:20;;;;;;;15.80;4.82;;;3.70;99.90;;;;;;4934178;29;20083;-86
2022/02/20 06:31:46;;;;;;;8.93;4.60;;;3.70;99.90;;;;;;4945405;28;20049;-85
2022/02/20 06:34:11;;;;;;;13.95;5.40;;;3.70;99.90;;;;;;4937105;28;20043;-86
2022/02/20 06:36:39;;;;;;;14.93;5.50;;;3.80;99.90;;;;;;4933208;28;20043;-87
2022/02/20 06:39:05;;;;;;;15.18;6.70;;;3.70;99.90;;;;;;4933768;28;20034;-87
2022/02/20 06:41:31;;;;;;;13.98;5.22;;;3.80;99.90;;;;;;4952851;28;20235;-86
2022/02/20 06:43:57;;;;;;;10.18;6.45;;;3.70;99.90;;;;;;4948643;28;20081;-85
2022/02/20 06:46:23;;;;;;;10.85;5.65;;;3.80;99.90;;;;;;4938748;28;20035;-86
2022/02/20 06:48:49;;;;;;;12.15;5.60;;;3.70;99.90;;;;;;4932980;28;20035;-85
2022/02/20 06:51:14;;;;;;;10.98;6.28;;;3.70;99.90;;;;;;4938024;28;20045;-87
2022/02/20 06:53:40;;;;;;;12.13;6.07;;;3.70;99.90;;;;;;4939714;28;20410;-87
2022/02/20 06:56:06;;;;;;;17.52;7.78;;;3.60;99.90;;;;;;4938408;28;20031;-87
2022/02/20 06:58:32;;;;;;;18.42;7.50;;;3.70;99.90;;;;;;4930878;28;20347;-86
2022/02/20 07:00:58;;;;;;;16.95;7.45;;;3.70;99.90;;;;;;4935811;28;20073;-87
2022/02/20 07:03:24;;;;;;;13.48;6.90;;;3.70;99.90;;;;;;4933657;28;20146;-86
2022/02/20 07:05:49;;;;;;;10.93;6.05;;;3.70;99.90;;;;;;4935932;28;20041;-86
2022/02/20 07:08:15;;;;;;;22.02;7.72;;;3.70;99.90;;;;;;4917158;29;20043;-87
2022/02/20 07:10:41;;;;;;;18.85;7.10;;;3.70;99.90;;;;;;4924840;28;20112;-86
2022/02/20 07:13:07;;;;;;;13.45;6.75;;;3.70;99.90;;;;;;4935210;28;20049;-87
2022/02/20 07:15:32;;;;;;;19.73;7.15;;;3.70;99.90;;;;;;4934842;28;20050;-86
2022/02/20 07:17:58;;;;;;;17.23;7.00;;;3.70;99.90;;;;;;4933833;28;20051;-87
2022/02/20 07:20:24;;;;;;;23.05;7.47;;;3.70;99.90;;;;;;4931616;28;20051;-86
2022/02/20 07:22:50;;;;;;;13.45;6.32;;;3.70;99.90;;;;;;4919185;28;20030;-87
2022/02/20 07:25:16;;;;;;;27.00;7.47;;;3.80;99.90;;;;;;4950569;28;20113;-88
2022/02/20 07:27:44;;;;;;;21.63;7.03;;;3.70;99.90;;;;;;4933082;28;20035;-86
2022/02/20 07:30:12;;;;;;;25.23;8.77;;;3.80;99.90;;;;;;4933650;28;20049;-87
2022/02/20 07:32:38;;;;;;;32.38;8.60;;;3.80;99.90;;;;;;4946330;28;20050;-86
2022/02/20 07:35:07;;;;;;;20.83;8.20;;;3.80;99.90;;;;;;4949839;28;20047;-84
2022/02/20 07:37:33;;;;;;;27.40;9.65;;;3.80;99.90;;;;;;4954730;28;20394;-86
2022/02/20 07:39:59;;;;;;;23.10;9.43;;;3.80;99.90;;;;;;4935419;28;20053;-87
2022/02/20 07:42:24;;;;;;;29.48;10.27;;;3.90;99.90;;;;;;4934362;28;20078;-87
2022/02/20 07:44:51;;;;;;;31.90;13.00;;;3.80;99.90;;;;;;4932145;29;20039;-85
2022/02/20 07:47:17;;;;;;;27.48;11.75;;;3.90;99.90;;;;;;4949225;28;20043;-87
2022/02/20 07:49:43;;;;;;;37.83;13.73;;;3.90;99.90;;;;;;4946570;28;20039;-87
2022/02/20 07:52:09;;;;;;;35.30;12.82;;;3.90;99.90;;;;;;4942800;29;20050;-86
2022/02/20 07:54:35;;;;;;;37.83;13.48;;;4.00;99.90;;;;;;4950415;28;20141;-87
2022/02/20 07:57:01;;;;;;;36.55;13.13;;;4.00;99.90;;;;;;4962108;28;20088;-87
2022/02/20 07:59:26;;;;;;;30.85;10.35;;;4.10;99.90;;;;;;4936525;28;20434;-87
2022/02/20 08:01:53;;;;;;;26.60;10.65;;;4.10;99.90;;;;;;4949826;28;20047;-87
2022/02/20 08:04:19;;;;;;;32.60;11.27;;;4.10;99.90;;;;;;4934496;28;20043;-84
2022/02/20 08:06:44;;;;;;;20.58;10.50;;;4.20;99.90;;;;;;4911950;28;20112;-87
2022/02/20 08:09:10;;;;;;;24.75;11.18;;;4.20;99.90;;;;;;4958672;28;20047;-84
2022/02/20 08:11:36;;;;;;;29.10;13.35;;;4.30;99.90;;;;;;4924667;28;20058;-85
2022/02/20 08:14:03;;;;;;;31.88;13.73;;;4.40;99.90;;;;;;4934766;28;20039;-85
2022/02/20 08:16:29;;;;;;;34.17;13.65;;;4.50;99.90;;;;;;4945410;28;20042;-85
2022/02/20 08:18:54;;;;;;;32.45;12.77;;;4.60;99.90;;;;;;4948411;28;20046;-86
2022/02/20 08:21:20;;;;;;;31.35;11.80;;;4.70;99.90;;;;;;4935204;28;20039;-86
2022/02/20 08:23:46;;;;;;;30.63;11.60;;;4.80;99.90;;;;;;4944478;28;20039;-85
2022/02/20 08:26:12;;;;;;;26.67;11.02;;;4.80;99.90;;;;;;4913424;28;20174;-84
2022/02/20 08:28:38;;;;;;;26.65;11.95;;;5.00;99.90;;;;;;4933831;28;20356;-85
2022/02/20 08:31:04;;;;;;;25.60;10.85;;;5.00;99.90;;;;;;4916796;28;20514;-86
2022/02/20 08:33:30;;;;;;;30.08;12.13;;;5.10;99.90;;;;;;4970790;28;20622;-86
2022/02/20 08:35:56;;;;;;;28.55;11.50;;;5.10;99.90;;;;;;4931762;28;20039;-86
2022/02/20 08:38:22;;;;;;;21.70;10.20;;;5.20;99.90;;;;;;4946478;28;20122;-86
2022/02/20 08:40:49;;;;;;;20.40;10.48;;;5.20;99.90;;;;;;4964380;28;20133;-85
2022/02/20 08:43:15;;;;;;;31.23;12.98;;;5.30;99.90;;;;;;4952897;28;20411;-85
2022/02/20 08:45:41;;;;;;;34.47;14.25;;;5.40;99.90;;;;;;4931233;28;20080;-83
2022/02/20 08:48:07;;;;;;;27.48;13.02;;;5.50;99.90;;;;;;4930041;28;20076;-85
2022/02/20 08:50:32;;;;;;;29.92;14.00;;;5.60;99.90;;;;;;4944738;28;20038;-84
2022/02/20 08:52:58;;;;;;;30.73;14.23;;;5.70;99.90;;;;;;4932364;28;20039;-84
2022/02/20 08:55:24;;;;;;;34.90;14.95;;;5.70;99.90;;;;;;4932411;28;20098;-86
2022/02/20 08:57:50;;;;;;;31.85;14.48;;;5.70;99.90;;;;;;4926963;28;20041;-85
2022/02/20 09:00:16;;;;;;;26.70;12.00;;;5.70;99.90;;;;;;4903626;28;20035;-85
2022/02/20 09:02:42;;;;;;;32.85;14.43;;;5.80;99.90;;;;;;4943006;28;20043;-86
2022/02/20 09:05:08;;;;;;;36.55;14.75;;;5.80;99.90;;;;;;4949082;28;20069;-86
2022/02/20 09:07:34;;;;;;;29.17;12.93;;;5.90;99.90;;;;;;4930666;28;20078;-85
2022/02/20 09:09:59;;;;;;;34.28;14.43;;;6.00;99.90;;;;;;4922197;28;20501;-84
2022/02/20 09:12:26;;;;;;;29.38;12.48;;;6.00;99.90;;;;;;4930491;28;20478;-85
2022/02/20 09:14:51;;;;;;;33.17;11.68;;;6.10;99.90;;;;;;4944192;28;20114;-84
2022/02/20 09:17:17;;;;;;;33.95;14.05;;;6.20;99.90;;;;;;4916481;28;20046;-85
2022/02/20 09:19:43;;;;;;;32.92;13.45;;;6.20;99.90;;;;;;4956514;28;20047;-84
2022/02/20 09:22:08;;;;;;;32.50;13.18;;;6.20;99.90;;;;;;4927188;28;20355;-87
2022/02/20 09:24:34;;;;;;;27.83;13.40;;;6.30;99.90;;;;;;4927853;28;20051;-85
2022/02/20 09:27:00;;;;;;;37.08;14.13;;;6.40;99.90;;;;;;4927242;28;20031;-86
2022/02/20 09:29:26;;;;;;;32.97;12.93;;;6.40;99.90;;;;;;4910967;28;20042;-87
2022/02/20 09:31:51;;;;;;;29.95;12.82;;;6.50;99.90;;;;;;4929670;28;20043;-85
2022/02/20 09:34:17;;;;;;;30.73;12.60;;;6.60;99.90;;;;;;4935377;28;20627;-85
2022/02/20 09:36:43;;;;;;;27.23;11.55;;;6.70;99.90;;;;;;4927721;28;20050;-87
2022/02/20 09:39:09;;;;;;;26.83;11.63;;;6.80;99.90;;;;;;4942112;23;20045;-87
2022/02/20 09:41:36;;;;;;;27.92;12.07;;;6.90;99.90;;;;;;4977632;28;20085;-86
2022/02/20 09:44:03;;;;;;;29.67;10.82;;;7.00;99.90;;;;;;4949853;28;20640;-85
2022/02/20 09:46:29;;;;;;;26.77;10.98;;;7.10;99.90;;;;;;4949361;28;20042;-86
2022/02/20 09:48:57;;;;;;;31.77;12.00;;;7.20;99.90;;;;;;4947182;28;20101;-87
2022/02/20 09:51:24;;;;;;;30.60;11.48;;;7.30;99.90;;;;;;4975849;28;20077;-85
2022/02/20 09:53:51;;;;;;;37.22;12.27;;;7.50;99.90;;;;;;4954288;28;20046;-86
2022/02/20 09:56:17;;;;;;;37.85;11.93;;;7.60;99.90;;;;;;4961914;28;20046;-87
2022/02/20 09:58:43;;;;;;;44.22;13.70;;;7.70;99.90;;;;;;4947685;28;20509;-85
2022/02/20 10:01:14;;;;;;;49.03;14.05;;;7.80;99.90;;;;;;4976084;28;20544;-86
2022/02/20 10:03:43;;;;;;;38.03;11.60;;;7.90;99.90;;;;;;4947883;28;20045;-84
2022/02/20 10:06:11;;;;;;;43.15;12.65;;;8.00;99.90;;;;;;4963271;28;20104;-84
2022/02/20 10:08:44;;;;;;;48.35;12.57;;;8.10;99.90;;;;;;4966379;28;20493;-85
2022/02/20 10:11:18;;;;;;;53.17;11.73;;;8.20;99.90;;;;;;4985207;28;20069;-85
2022/02/20 10:13:49;;;;;;;48.35;10.50;;;8.20;99.90;;;;;;4956688;28;20109;-84
2022/02/20 10:16:21;;;;;;;40.53;10.63;;;8.30;99.90;;;;;;4965848;28;20133;-84
2022/02/20 10:18:48;;;;;;;53.28;10.75;;;8.30;99.90;;;;;;4960492;28;20599;-84
2022/02/20 10:21:29;;;;;;;55.72;11.02;;;8.40;99.90;;;;;;4961648;28;20105;-83
2022/02/20 10:24:04;;;;;;;60.05;9.25;;;8.40;99.90;;;;;;4961303;28;20528;-84
2022/02/20 10:26:33;;;;;;;53.75;8.52;;;8.50;99.90;;;;;;4967821;28;20034;-85
2022/02/20 10:29:21;;;;;;;61.40;8.50;;;8.50;99.90;;;;;;4956291;28;20042;-86
2022/02/20 10:31:52;;;;;;;54.03;8.23;;;8.60;99.90;;;;;;4975101;28;20219;-84
2022/02/20 10:34:26;;;;;;;57.90;8.77;;;8.60;99.90;;;;;;4975051;28;20132;-84
2022/02/20 10:37:01;;;;;;;69.32;8.70;;;8.60;99.90;;;;;;4963614;28;20493;-86
2022/02/20 10:39:31;;;;;;;64.22;8.45;;;8.70;99.90;;;;;;4964113;28;20034;-85
2022/02/20 10:42:09;;;;;;;66.40;7.53;;;8.70;99.90;;;;;;4962201;28;20517;-87
2022/02/20 10:44:47;;;;;;;53.53;7.60;;;8.70;99.90;;;;;;4964006;28;20042;-84
2022/02/20 10:47:14;;;;;;;58.45;7.07;;;8.70;99.90;;;;;;4958981;28;20046;-86
2022/02/20 10:49:40;;;;;;;53.63;7.60;;;8.70;99.90;;;;;;4962238;28;20098;-85
2022/02/20 10:52:22;;;;;;;52.70;8.15;;;8.80;99.90;;;;;;4949688;28;20038;-86
2022/02/20 10:55:05;;;;;;;50.55;7.20;;;8.80;99.90;;;;;;4983878;28;20058;-85
2022/02/20 10:57:38;;;;;;;73.35;8.15;;;8.80;99.90;;;;;;4966837;28;20409;-84
2022/02/20 11:00:13;;;;;;;54.53;6.53;;;8.90;99.90;;;;;;4946306;28;22424;-85
2022/02/20 11:02:40;;;;;;;67.03;8.52;;;8.90;99.90;;;;;;4965979;28;20049;-83
2022/02/20 11:05:06;;;;;;;51.63;7.53;;;8.90;99.90;;;;;;4965707;28;20120;-88
2022/02/20 11:07:37;;;;;;;48.90;6.60;;;8.90;99.90;;;;;;4961975;28;20108;-89
2022/02/20 11:10:09;;;;;;;55.50;7.35;;;8.90;99.90;;;;;;4972170;28;20042;-87
2022/02/20 11:12:36;;;;;;;62.75;7.32;;;8.90;99.90;;;;;;4968203;28;20042;-85
2022/02/20 11:15:03;;;;;;;57.30;8.05;;;8.90;99.90;;;;;;4950531;28;20047;-87
2022/02/20 11:17:30;;;;;;;71.43;8.23;;;8.90;99.90;;;;;;4966895;28;20053;-85
2022/02/20 11:19:58;;;;;;;41.80;6.40;;;8.90;99.90;;;;;;4949937;28;20034;-85
2022/02/20 11:22:35;;;;;;;64.75;7.85;;;8.90;99.90;;;;;;4959741;28;20434;-86
2022/02/20 11:25:03;;;;;;;73.30;7.95;;;9.00;99.90;;;;;;4966978;28;20252;-85
2022/02/20 11:27:29;;;;;;;61.90;7.22;;;9.00;99.90;;;;;;4967833;28;20045;-89
2022/02/20 11:29:55;;;;;;;63.42;7.43;;;9.00;99.90;;;;;;4967234;28;20092;-85
2022/02/20 11:32:22;;;;;;;64.00;7.75;;;9.00;99.90;;;;;;4965936;28;20042;-87
2022/02/20 11:34:48;;;;;;;65.63;8.15;;;9.00;99.90;;;;;;4965000;28;20034;-84
2022/02/20 11:37:15;;;;;;;60.47;6.90;;;9.10;99.90;;;;;;4947733;28;20447;-85
2022/02/20 11:40:01;;;;;;;61.97;7.85;;;9.00;99.90;;;;;;4948190;28;20132;-84
2022/02/20 11:42:27;;;;;;;54.35;6.95;;;9.10;99.90;;;;;;4977201;28;20139;-87
2022/02/20 11:44:55;;;;;;;65.63;7.80;;;9.00;99.90;;;;;;4958620;28;20236;-86
2022/02/20 11:48:03;;;;;;;55.55;7.47;;;9.10;99.90;;;;;;4965129;28;20035;-85
2022/02/20 11:50:31;;;;;;;67.22;8.15;;;9.00;99.90;;;;;;4961821;28;20043;-87
2022/02/20 11:52:59;;;;;;;59.03;8.38;;;9.00;99.90;;;;;;4966010;28;20046;-85
2022/02/20 11:55:31;;;;;;;57.50;7.35;;;9.00;99.90;;;;;;4966172;28;20047;-85
2022/02/20 11:58:17;;;;;;;56.63;7.15;;;9.10;99.90;;;;;;4965754;28;20042;-85
2022/02/20 12:01:06;;;;;;;60.55;8.63;;;9.10;99.90;;;;;;4961622;28;20033;-85
2022/02/20 12:03:52;;;;;;;55.30;8.15;;;9.00;99.90;;;;;;4961160;28;20046;-87
2022/02/20 12:06:25;;;;;;;59.78;7.55;;;9.10;99.90;;;;;;4980819;28;20520;-85
2022/02/20 12:08:56;;;;;;;59.83;7.57;;;9.10;99.90;;;;;;4968369;28;20038;-86
2022/02/20 12:11:26;;;;;;;54.97;6.35;;;9.00;99.90;;;;;;4981034;28;20058;-85
2022/02/20 12:14:11;;;;;;;66.32;7.72;;;9.00;99.90;;;;;;4963354;28;20045;-85
2022/02/20 12:16:45;;;;;;;44.95;6.57;;;9.10;99.90;;;;;;4966498;28;20046;-85
2022/02/20 12:19:19;;;;;;;59.13;8.00;;;9.00;99.90;;;;;;4963175;28;20062;-85
2022/02/20 12:22:03;;;;;;;50.22;6.25;;;9.10;99.90;;;;;;4964595;28;20077;-86
2022/02/20 12:24:49;;;;;;;56.70;7.63;;;9.00;99.90;;;;;;4942114;28;20141;-87
2022/02/20 12:27:20;;;;;;;47.78;6.80;;;9.10;99.90;;;;;;4967676;28;20514;-85
2022/02/20 12:29:50;;;;;;;63.10;7.53;;;9.00;99.90;;;;;;4975973;28;20047;-87
2022/02/20 12:32:24;;;;;;;58.25;8.45;;;9.10;99.90;;;;;;4966556;28;20555;-85
2022/02/20 12:34:57;;;;;;;67.82;7.93;;;9.10;99.90;;;;;;4969032;28;20061;-86
2022/02/20 12:37:33;;;;;;;53.20;7.38;;;9.10;99.90;;;;;;4977887;28;20034;-85
2022/02/20 12:40:11;;;;;;;64.20;8.23;;;9.10;99.90;;;;;;4962952;28;20050;-86
2022/02/20 12:42:44;;;;;;;57.90;8.07;;;9.10;99.90;;;;;;4964038;28;20042;-89
2022/02/20 12:45:14;;;;;;;57.95;7.28;;;9.20;99.90;;;;;;4981116;28;20098;-87
2022/02/20 12:47:41;;;;;;;56.58;8.30;;;9.10;99.90;;;;;;4965557;28;20038;-85
2022/02/20 12:50:10;;;;;;;61.00;8.05;;;9.10;99.90;;;;;;4981825;28;20193;-85